Time;durP1;ratioP1;P1;durP2;ratioP2;P2;SDS_P1;SDS_P2;PMS_P1;PMS_P2;Temp;Humidity;BMP_temperature;BMP_pressure;BME280_temperature;BME280_humidity;BME280_pressure;Samples;Min_cycle;Max_cycle;Signal;HPM_P1;HPM_P2
2021/03/10 00:02:18;;;;;;;32.47;19.27;;;51.90;2227.20;;;;;;5095595;28;20099;-68
2021/03/10 00:04:43;;;;;;;25.45;17.42;;;51.90;2227.20;;;;;;5097700;28;20174;-71
2021/03/10 00:07:09;;;;;;;27.30;16.85;;;51.80;2227.20;;;;;;5097551;28;20711;-69
2021/03/10 00:09:35;;;;;;;27.20;16.48;;;51.70;2227.20;;;;;;5097677;28;20027;-68
2021/03/10 00:12:01;;;;;;;26.27;17.00;;;51.70;2227.20;;;;;;5097902;28;20024;-69
2021/03/10 00:14:26;;;;;;;27.33;17.20;;;51.70;2227.20;;;;;;5097701;28;20330;-68
2021/03/10 00:16:52;;;;;;;28.88;17.10;;;51.70;2227.20;;;;;;5097292;28;20102;-67
2021/03/10 00:19:18;;;;;;;27.23;16.15;;;51.70;2227.20;;;;;;5097781;28;20107;-69
2021/03/10 00:21:44;;;;;;;24.38;16.02;;;51.60;2227.20;;;;;;5097501;28;20024;-70
2021/03/10 00:24:10;;;;;;;29.50;16.92;;;51.60;2227.20;;;;;;5097441;28;20073;-69
2021/03/10 00:26:36;;;;;;;26.25;16.48;;;51.60;2227.20;;;;;;5097574;28;20346;-67
2021/03/10 00:29:02;;;;;;;29.17;17.75;;;51.70;2227.20;;;;;;5096322;28;20020;-70
2021/03/10 00:31:28;;;;;;;24.42;15.43;;;51.70;2227.20;;;;;;5097978;28;20403;-69
2021/03/10 00:33:54;;;;;;;26.08;14.63;;;51.70;2227.20;;;;;;5098281;28;20019;-69
2021/03/10 00:36:20;;;;;;;21.25;15.18;;;51.70;2227.20;;;;;;5098694;28;20032;-68
2021/03/10 00:38:45;;;;;;;21.27;14.05;;;51.70;2227.20;;;;;;5098935;28;20121;-68
2021/03/10 00:41:11;;;;;;;20.20;13.23;;;51.60;2227.20;;;;;;5098592;28;20035;-68
2021/03/10 00:43:37;;;;;;;22.60;14.23;;;51.50;2227.20;;;;;;5097986;28;20031;-67
2021/03/10 00:46:03;;;;;;;17.48;12.82;;;51.40;2227.20;;;;;;5098715;28;20074;-68
2021/03/10 00:48:28;;;;;;;19.05;12.27;;;51.40;2227.20;;;;;;5098728;28;20129;-68
2021/03/10 00:50:54;;;;;;;18.10;11.48;;;51.30;2227.20;;;;;;5098381;28;20031;-69
2021/03/10 00:53:20;;;;;;;16.38;11.20;;;51.20;2227.20;;;;;;5098091;28;20082;-68
2021/03/10 00:55:46;;;;;;;14.90;10.00;;;51.20;2227.20;;;;;;5097578;28;20028;-68
2021/03/10 00:58:12;;;;;;;18.23;11.50;;;51.20;2227.20;;;;;;5098226;28;20031;-67
2021/03/10 01:00:37;;;;;;;16.88;11.00;;;51.20;2227.20;;;;;;5098511;28;20032;-68
2021/03/10 01:03:03;;;;;;;15.50;9.70;;;51.20;2227.20;;;;;;5098145;28;20111;-69
2021/03/10 01:05:29;;;;;;;14.48;9.32;;;51.20;2227.20;;;;;;5097458;28;20034;-69
2021/03/10 01:07:55;;;;;;;16.08;9.95;;;26.50;2201.60;;;;;;5098232;28;20073;-68
2021/03/10 01:10:20;;;;;;;14.27;9.07;;;26.40;2201.60;;;;;;5097473;28;20034;-69
2021/03/10 01:12:46;;;;;;;12.32;9.18;;;26.40;2201.60;;;;;;5098151;28;20319;-69
2021/03/10 01:15:18;;;;;;;13.20;8.60;;;26.40;2201.60;;;;;;5097572;28;20052;-69
2021/03/10 01:17:45;;;;;;;14.63;9.70;;;26.30;2201.60;;;;;;5097941;28;20028;-68
2021/03/10 01:20:14;;;;;;;11.85;8.25;;;26.30;2201.60;;;;;;5098186;28;20368;-70
2021/03/10 01:22:40;;;;;;;;;;;26.30;2201.60;;;;;;5098316;28;20075;-69
2021/03/10 01:25:07;;;;;;;13.32;8.45;;;26.30;2201.60;;;;;;5097482;28;20036;-68
2021/03/10 01:27:33;;;;;;;13.55;8.63;;;26.20;2201.60;;;;;;5097264;28;20039;-68
2021/03/10 01:29:59;;;;;;;12.45;8.25;;;26.30;2201.60;;;;;;5097426;28;20027;-68
2021/03/10 01:32:25;;;;;;;10.02;7.22;;;26.40;2201.60;;;;;;5097426;28;20024;-69
2021/03/10 01:34:51;;;;;;;11.63;7.75;;;26.40;2201.60;;;;;;5097615;28;20031;-69
2021/03/10 01:37:17;;;;;;;13.15;8.75;;;26.40;2201.60;;;;;;5097590;28;20028;-68
2021/03/10 01:39:43;;;;;;;12.90;8.38;;;26.40;2201.60;;;;;;5097329;28;20059;-70
2021/03/10 01:42:09;;;;;;;12.65;8.40;;;26.40;2201.60;;;;;;5097551;28;20453;-68
2021/03/10 01:44:34;;;;;;;12.77;8.27;;;26.50;2201.60;;;;;;5097685;28;20360;-68
2021/03/10 01:47:01;;;;;;;12.80;9.05;;;26.50;2201.60;;;;;;5097241;28;20414;-68
2021/03/10 01:49:28;;;;;;;14.93;9.68;;;51.20;2227.20;;;;;;5097483;28;20073;-68
2021/03/10 01:51:54;;;;;;;14.45;8.77;;;51.30;2227.20;;;;;;5097025;28;20044;-68
2021/03/10 01:54:20;;;;;;;12.13;8.60;;;51.40;2227.20;;;;;;5097306;28;20056;-69
2021/03/10 01:56:46;;;;;;;11.18;7.95;;;51.30;2227.20;;;;;;5097639;28;20024;-68
2021/03/10 01:59:12;;;;;;;10.85;7.60;;;51.20;2227.20;;;;;;5097369;28;20027;-67
2021/03/10 02:01:38;;;;;;;10.60;7.40;;;51.20;2227.20;;;;;;5097302;28;20027;-68
2021/03/10 02:04:05;;;;;;;13.50;8.07;;;51.30;2227.20;;;;;;5097291;28;20401;-68
2021/03/10 02:06:58;;;;;;;10.20;7.57;;;51.20;2227.20;;;;;;5097163;28;20096;-69
2021/03/10 02:09:32;;;;;;;9.50;6.40;;;51.40;2227.20;;;;;;5097297;28;20034;-68
2021/03/10 02:12:11;;;;;;;11.23;7.03;;;51.30;2227.20;;;;;;5096655;28;20026;-67
2021/03/10 02:15:05;;;;;;;10.60;7.18;;;51.20;2227.20;;;;;;5097002;28;20069;-67
2021/03/10 02:17:36;;;;;;;10.82;7.15;;;26.50;2201.60;;;;;;5097228;28;20407;-70
2021/03/10 02:20:28;;;;;;;10.60;6.82;;;26.20;2201.60;;;;;;5096942;28;20402;-67
2021/03/10 02:23:13;;;;;;;10.93;7.20;;;26.20;2201.60;;;;;;5097150;28;20024;-67
2021/03/10 02:26:09;;;;;;;10.38;6.53;;;26.10;2201.60;;;;;;5097350;28;20028;-67
2021/03/10 02:28:37;;;;;;;11.38;7.15;;;26.10;2201.60;;;;;;5096563;28;20055;-68
2021/03/10 02:31:04;;;;;;;11.20;7.13;;;26.10;2201.60;;;;;;5096949;28;20040;-68
2021/03/10 02:33:31;;;;;;;11.30;7.82;;;26.00;2201.60;;;;;;5096799;28;20020;-67
2021/03/10 02:36:00;;;;;;;10.90;7.13;;;25.90;2201.60;;;;;;5096981;28;20069;-69
2021/03/10 02:38:28;;;;;;;11.82;7.25;;;25.90;2201.60;;;;;;5096712;28;20318;-67
2021/03/10 02:40:55;;;;;;;13.63;7.57;;;25.90;2201.60;;;;;;5096708;28;20050;-69
2021/03/10 02:43:22;;;;;;;11.43;8.10;;;25.90;2201.60;;;;;;5096683;28;20035;-69
2021/03/10 02:45:51;;;;;;;9.88;7.38;;;25.90;2201.60;;;;;;5096796;28;20085;-69
2021/03/10 02:48:18;;;;;;;11.38;7.65;;;25.80;2201.60;;;;;;5096919;28;20024;-69
2021/03/10 02:50:45;;;;;;;12.18;7.32;;;25.90;2201.60;;;;;;5096712;28;20414;-69
2021/03/10 02:53:11;;;;;;;9.90;6.90;;;25.90;2201.60;;;;;;5100152;28;20024;-68
2021/03/10 02:55:39;;;;;;;10.05;6.97;;;25.80;2201.60;;;;;;5100358;28;20433;-69
2021/03/10 02:58:10;;;;;;;10.50;7.18;;;25.80;2201.60;;;;;;5100630;28;20206;-68
2021/03/10 03:00:37;;;;;;;11.63;6.82;;;25.70;2201.60;;;;;;5100841;28;20019;-67
2021/03/10 03:03:04;;;;;;;9.52;6.80;;;25.80;2201.60;;;;;;5100521;28;20362;-70
2021/03/10 03:05:31;;;;;;;8.95;6.45;;;25.80;2201.60;;;;;;5100401;28;20326;-70
2021/03/10 03:07:57;;;;;;;9.25;5.97;;;25.80;2201.60;;;;;;5100737;28;20085;-67
2021/03/10 03:10:26;;;;;;;9.45;5.93;;;25.80;2201.60;;;;;;5100376;28;20028;-68
2021/03/10 03:12:53;;;;;;;10.02;6.55;;;25.80;2201.60;;;;;;5100332;28;20024;-67
2021/03/10 03:15:22;;;;;;;9.75;6.82;;;25.60;2201.60;;;;;;5100383;28;20139;-67
2021/03/10 03:17:48;;;;;;;;;;;25.60;2201.60;;;;;;5100074;28;20028;-67
2021/03/10 03:20:16;;;;;;;12.15;7.32;;;25.60;2201.60;;;;;;5099808;28;20287;-68
2021/03/10 03:22:54;;;;;;;11.63;6.88;;;25.60;2201.60;;;;;;5100179;28;20020;-69
2021/03/10 03:25:22;;;;;;;9.93;6.95;;;25.70;2201.60;;;;;;5099823;28;20327;-69
2021/03/10 03:27:56;;;;;;;11.40;7.25;;;25.60;2201.60;;;;;;5100077;28;20035;-67
2021/03/10 03:30:24;;;;;;;11.32;7.07;;;25.70;2201.60;;;;;;5100083;28;20035;-69
2021/03/10 03:32:54;;;;;;;12.32;7.68;;;25.70;2201.60;;;;;;5100268;28;20016;-68
2021/03/10 03:35:21;;;;;;;12.40;8.18;;;25.70;2201.60;;;;;;5099604;28;20032;-68
2021/03/10 03:37:50;;;;;;;13.32;8.30;;;25.70;2201.60;;;;;;5099553;28;20027;-69
2021/03/10 03:40:18;;;;;;;14.07;8.15;;;25.70;2201.60;;;;;;5099534;28;20020;-68
2021/03/10 03:42:45;;;;;;;10.55;6.97;;;25.80;2201.60;;;;;;5099745;28;20056;-69
2021/03/10 03:45:11;;;;;;;11.20;7.57;;;25.80;2201.60;;;;;;5099376;28;20110;-68
2021/03/10 03:47:39;;;;;;;10.35;6.80;;;25.90;2201.60;;;;;;5099680;28;20028;-67
2021/03/10 03:50:05;;;;;;;12.27;7.22;;;26.00;2201.60;;;;;;5099919;28;20028;-68
2021/03/10 03:52:31;;;;;;;9.93;6.85;;;26.10;2201.60;;;;;;5099523;28;20410;-68
2021/03/10 03:54:57;;;;;;;11.20;7.43;;;26.20;2201.60;;;;;;5099205;28;20039;-68
2021/03/10 03:57:22;;;;;;;13.27;8.15;;;26.40;2201.60;;;;;;5099502;28;20077;-68
2021/03/10 03:59:48;;;;;;;10.80;7.55;;;26.40;2201.60;;;;;;5099129;28;20051;-67
2021/03/10 04:02:14;;;;;;;10.82;6.72;;;26.40;2201.60;;;;;;5099265;28;20069;-68
2021/03/10 04:04:40;;;;;;;11.55;7.30;;;26.50;2201.60;;;;;;5098658;28;20035;-68
2021/03/10 04:07:05;;;;;;;17.77;9.43;;;26.40;2201.60;;;;;;5099222;28;20042;-70
2021/03/10 04:09:31;;;;;;;15.27;8.35;;;26.50;2201.60;;;;;;5099173;28;20090;-67
2021/03/10 04:11:57;;;;;;;17.23;9.35;;;51.20;2227.20;;;;;;5098375;28;20174;-70
2021/03/10 04:14:23;;;;;;;11.40;7.15;;;51.20;2227.20;;;;;;5099393;28;20032;-67
2021/03/10 04:16:48;;;;;;;10.25;6.95;;;51.30;2227.20;;;;;;5098885;28;20190;-68
2021/03/10 04:19:14;;;;;;;8.05;6.03;;;51.40;2227.20;;;;;;5098674;28;20423;-69
2021/03/10 04:21:40;;;;;;;11.40;6.05;;;51.50;2227.20;;;;;;5098259;28;20027;-70
2021/03/10 04:24:06;;;;;;;12.18;6.97;;;51.60;2227.20;;;;;;5098924;28;20311;-69
2021/03/10 04:26:32;;;;;;;15.75;8.73;;;51.60;2227.20;;;;;;5098572;28;20032;-71
2021/03/10 04:28:58;;;;;;;14.20;8.35;;;51.60;2227.20;;;;;;5099138;28;20031;-68
2021/03/10 04:31:24;;;;;;;15.55;9.65;;;51.60;2227.20;;;;;;5098494;28;20024;-70
2021/03/10 04:33:50;;;;;;;10.73;7.25;;;51.70;2227.20;;;;;;5098524;28;20411;-69
2021/03/10 04:36:15;;;;;;;10.18;6.90;;;51.60;2227.20;;;;;;5098721;28;20082;-71
2021/03/10 04:38:41;;;;;;;9.60;6.28;;;51.50;2227.20;;;;;;5097522;28;20435;-70
2021/03/10 04:41:07;;;;;;;8.85;6.65;;;51.40;2227.20;;;;;;5098084;28;20111;-70
2021/03/10 04:43:33;;;;;;;9.77;6.20;;;51.30;2227.20;;;;;;5098297;28;20039;-68
2021/03/10 04:45:59;;;;;;;11.60;7.07;;;51.20;2227.20;;;;;;5097714;28;20434;-70
2021/03/10 04:48:24;;;;;;;10.43;6.88;;;51.20;2227.20;;;;;;5097691;28;20059;-69
2021/03/10 04:50:50;;;;;;;12.50;7.82;;;26.50;2201.60;;;;;;5097735;28;20019;-70
2021/03/10 04:53:16;;;;;;;11.32;7.40;;;26.40;2201.60;;;;;;5097999;28;20308;-69
2021/03/10 04:55:42;;;;;;;12.25;7.70;;;26.40;2201.60;;;;;;5097797;28;20020;-69
2021/03/10 04:58:08;;;;;;;9.63;6.75;;;26.40;2201.60;;;;;;5098607;28;20028;-70
2021/03/10 05:00:34;;;;;;;9.15;5.93;;;26.30;2201.60;;;;;;5097803;28;20381;-70
2021/03/10 05:02:59;;;;;;;10.45;6.50;;;26.30;2201.60;;;;;;5097579;28;20024;-70
2021/03/10 05:05:25;;;;;;;8.60;6.07;;;26.40;2201.60;;;;;;5097039;28;20024;-70
2021/03/10 05:07:51;;;;;;;9.98;6.20;;;26.30;2201.60;;;;;;5096854;28;20036;-68
2021/03/10 05:10:17;;;;;;;10.70;6.45;;;26.30;2201.60;;;;;;5096277;28;20103;-67
2021/03/10 05:12:43;;;;;;;8.25;5.82;;;26.30;2201.60;;;;;;5096302;28;20365;-67
2021/03/10 05:15:09;;;;;;;8.95;5.88;;;26.40;2201.60;;;;;;5095443;28;20043;-68
2021/03/10 05:17:35;;;;;;;8.75;6.07;;;26.50;2201.60;;;;;;5097376;28;20024;-68
2021/03/10 05:20:03;;;;;;;11.50;7.50;;;26.50;2201.60;;;;;;5096948;28;20034;-67
2021/03/10 05:22:29;;;;;;;15.25;9.43;;;51.20;2227.20;;;;;;5097247;28;20042;-68
2021/03/10 05:24:55;;;;;;;13.27;8.70;;;51.30;2227.20;;;;;;5097291;28;20326;-66
2021/03/10 05:27:21;;;;;;;15.20;9.38;;;51.40;2227.20;;;;;;5098006;28;20029;-67
2021/03/10 05:29:47;;;;;;;13.18;8.10;;;51.60;2227.20;;;;;;5097440;28;20028;-68
2021/03/10 05:32:14;;;;;;;8.77;6.63;;;51.60;2227.20;;;;;;5097915;28;20024;-67
2021/03/10 05:34:39;;;;;;;8.82;5.95;;;51.60;2227.20;;;;;;5097652;28;20085;-67
2021/03/10 05:37:05;;;;;;;8.00;5.57;;;51.60;2227.20;;;;;;5097614;28;20106;-68
2021/03/10 05:39:31;;;;;;;7.85;5.38;;;51.50;2227.20;;;;;;5097072;28;20445;-69
2021/03/10 05:41:58;;;;;;;7.70;6.03;;;51.50;2227.20;;;;;;5097887;28;20024;-68
2021/03/10 05:44:25;;;;;;;7.28;5.93;;;51.40;2227.20;;;;;;5097273;28;20031;-68
2021/03/10 05:46:53;;;;;;;8.05;5.40;;;51.30;2227.20;;;;;;5097783;28;20372;-67
2021/03/10 05:49:19;;;;;;;8.40;5.65;;;51.30;2227.20;;;;;;5097134;28;20428;-67
2021/03/10 05:51:45;;;;;;;8.77;5.90;;;51.30;2227.20;;;;;;5097452;28;20037;-67
2021/03/10 05:54:13;;;;;;;7.32;5.50;;;51.20;2227.20;;;;;;5097384;28;20399;-68
2021/03/10 05:56:43;;;;;;;7.73;5.53;;;51.20;2227.20;;;;;;5097119;28;20114;-67
2021/03/10 05:59:09;;;;;;;7.53;5.05;;;51.20;2227.20;;;;;;5097663;28;20020;-69
2021/03/10 06:01:35;;;;;;;7.47;4.88;;;51.20;2227.20;;;;;;5097631;28;20024;-68
2021/03/10 06:04:04;;;;;;;6.85;5.10;;;51.20;2227.20;;;;;;5097327;28;20070;-69
2021/03/10 06:06:38;;;;;;;8.83;5.63;;;51.20;2227.20;;;;;;5097513;28;20020;-67
2021/03/10 06:09:16;;;;;;;7.35;5.05;;;51.20;2227.20;;;;;;5097252;28;20252;-67
2021/03/10 06:11:56;;;;;;;7.88;5.50;;;51.20;2227.20;;;;;;5097256;28;20075;-68
2021/03/10 06:14:24;;;;;;;7.03;4.78;;;51.30;2227.20;;;;;;5096945;28;20024;-68
2021/03/10 06:17:08;;;;;;;7.30;4.63;;;51.30;2227.20;;;;;;5097599;28;20043;-67
2021/03/10 06:19:48;;;;;;;6.25;4.40;;;51.40;2227.20;;;;;;5096379;28;20341;-67
2021/03/10 06:22:15;;;;;;;5.80;4.22;;;51.40;2227.20;;;;;;5097372;28;20028;-67
2021/03/10 06:24:41;;;;;;;6.35;4.57;;;51.50;2227.20;;;;;;5097036;28;20062;-68
2021/03/10 06:27:08;;;;;;;5.75;3.80;;;51.60;2227.20;;;;;;5099065;28;20055;-67
2021/03/10 06:29:35;;;;;;;5.85;4.35;;;51.60;2227.20;;;;;;5101443;28;20020;-66
2021/03/10 06:32:03;;;;;;;7.70;5.28;;;51.80;2227.20;;;;;;5100052;28;20054;-69
2021/03/10 06:34:29;;;;;;;7.95;5.55;;;52.00;2227.20;;;;;;5101097;28;20028;-67
2021/03/10 06:36:55;;;;;;;5.88;4.30;;;76.80;2227.20;;;;;;5100476;28;20360;-67
2021/03/10 06:39:29;;;;;;;12.90;8.70;;;76.90;2227.20;;;;;;5100440;28;20029;-68
2021/03/10 06:41:55;;;;;;;11.65;7.78;;;77.00;2227.20;;;;;;5100673;28;20069;-68
2021/03/10 06:44:28;;;;;;;6.22;4.53;;;77.00;2227.20;;;;;;5101193;28;20035;-67
2021/03/10 06:46:56;;;;;;;4.93;3.20;;;77.10;2227.20;;;;;;5100922;28;20334;-66
2021/03/10 06:49:27;;;;;;;7.13;3.47;;;77.10;2227.20;;;;;;5100866;28;20059;-68
2021/03/10 06:51:55;;;;;;;5.07;3.70;;;77.20;2227.20;;;;;;5100499;28;20032;-68
2021/03/10 06:54:28;;;;;;;5.30;3.92;;;77.20;2227.20;;;;;;5100470;28;20031;-67
2021/03/10 06:57:05;;;;;;;5.38;3.40;;;77.20;2227.20;;;;;;5100963;28;20110;-69
2021/03/10 06:59:43;;;;;;;4.80;3.25;;;77.30;2227.20;;;;;;5100889;28;20032;-68
2021/03/10 07:02:19;;;;;;;5.60;3.40;;;77.50;2227.20;;;;;;5100613;28;20406;-67
2021/03/10 07:04:48;;;;;;;5.47;3.53;;;77.60;2227.20;;;;;;5100222;28;20180;-67
2021/03/10 07:07:15;;;;;;;5.65;3.97;;;77.50;2227.20;;;;;;5099920;28;20035;-69
2021/03/10 07:09:41;;;;;;;5.40;3.88;;;77.50;2227.20;;;;;;5100701;28;20031;-68
2021/03/10 07:12:12;;;;;;;6.72;4.82;;;77.60;2227.20;;;;;;5100635;28;20043;-66
2021/03/10 07:14:38;;;;;;;5.88;4.00;;;77.40;2227.20;;;;;;5099992;28;20024;-68
2021/03/10 07:17:09;;;;;;;6.18;4.65;;;77.60;2227.20;;;;;;5119984;28;20026;-69
2021/03/10 07:19:34;;;;;;;6.35;4.45;;;77.70;2227.20;;;;;;5120885;28;20019;-67
2021/03/10 07:22:14;;;;;;;7.72;5.22;;;102.50;2227.20;;;;;;5119886;28;20073;-69
2021/03/10 07:24:51;;;;;;;8.00;5.13;;;102.90;2227.20;;;;;;5120406;28;20059;-68
2021/03/10 07:27:20;;;;;;;7.07;4.13;;;102.90;2227.20;;;;;;5119846;28;20035;-68
2021/03/10 07:29:46;;;;;;;5.90;4.25;;;102.90;2227.20;;;;;;5120013;28;20024;-68
2021/03/10 07:32:22;;;;;;;9.45;6.15;;;103.10;2227.20;;;;;;5120960;28;20101;-67
2021/03/10 07:34:48;;;;;;;10.73;6.95;;;103.20;2227.20;;;;;;5120033;28;20049;-68
2021/03/10 07:37:15;;;;;;;12.75;8.00;;;103.20;2227.20;;;;;;5119797;28;20087;-70
2021/03/10 07:39:41;;;;;;;13.95;8.85;;;128.00;2252.80;;;;;;5120413;28;20027;-67
2021/03/10 07:42:15;;;;;;;13.68;9.15;;;128.10;2252.80;;;;;;5120183;28;20024;-66
2021/03/10 07:44:42;;;;;;;17.17;10.75;;;128.20;2252.80;;;;;;5120383;28;20318;-69
2021/03/10 07:47:11;;;;;;;17.98;11.20;;;128.30;2252.80;;;;;;5120324;28;20027;-67
2021/03/10 07:49:39;;;;;;;13.95;9.20;;;128.20;2252.80;;;;;;5119619;28;20481;-67
2021/03/10 07:52:13;;;;;;;17.48;11.48;;;128.30;2252.80;;;;;;5119957;28;20027;-68
2021/03/10 07:54:40;;;;;;;12.68;8.25;;;128.30;2252.80;;;;;;5119902;28;20101;-69
2021/03/10 07:57:16;;;;;;;15.25;8.52;;;128.20;2252.80;;;;;;5119877;28;20027;-68
2021/03/10 08:00:00;;;;;;;12.75;8.25;;;128.30;2252.80;;;;;;5120031;28;20030;-67
2021/03/10 08:02:27;;;;;;;16.17;10.45;;;128.50;2252.80;;;;;;5119800;28;20027;-68
2021/03/10 08:04:56;;;;;;;20.10;11.63;;;128.70;2252.80;;;;;;5119595;28;20035;-68
2021/03/10 08:07:30;;;;;;;19.20;11.68;;;128.90;2252.80;;;;;;5119123;28;20323;-67
2021/03/10 08:09:56;;;;;;;20.08;11.00;;;153.90;2252.80;;;;;;5103062;28;20035;-70
2021/03/10 08:12:34;;;;;;;19.02;11.85;;;154.30;2252.80;;;;;;5098310;28;20027;-69
2021/03/10 08:15:00;;;;;;;22.65;12.20;;;154.50;2252.80;;;;;;5099225;28;20047;-68
2021/03/10 08:17:28;;;;;;;17.30;11.45;;;179.30;2252.80;;;;;;5098119;28;20409;-67
2021/03/10 08:19:59;;;;;;;18.10;11.73;;;179.30;2252.80;;;;;;5098659;28;20031;-68
2021/03/10 08:22:27;;;;;;;19.65;13.05;;;179.30;2252.80;;;;;;5098992;28;20051;-66
2021/03/10 08:24:54;;;;;;;19.23;12.45;;;179.20;2252.80;;;;;;5098827;28;20031;-68
2021/03/10 08:27:36;;;;;;;17.13;12.88;;;154.30;2252.80;;;;;;5098848;28;20032;-68
2021/03/10 08:30:08;;;;;;;15.95;12.27;;;154.30;2252.80;;;;;;5098798;28;20024;-67
2021/03/10 08:32:34;;;;;;;17.60;12.20;;;154.10;2252.80;;;;;;5098824;28;20379;-69
2021/03/10 08:35:21;;;;;;;17.25;11.57;;;154.00;2252.80;;;;;;5098690;28;20028;-68
2021/03/10 08:37:59;;;;;;;17.65;12.02;;;153.80;2252.80;;;;;;5098590;28;20053;-67
2021/03/10 08:40:28;;;;;;;15.73;10.30;;;128.90;2252.80;;;;;;5098881;28;20020;-68
2021/03/10 08:42:55;;;;;;;14.38;9.30;;;128.90;2252.80;;;;;;5098852;28;20062;-67
2021/03/10 08:45:33;;;;;;;10.95;8.00;;;128.80;2252.80;;;;;;5097833;28;20074;-68
2021/03/10 08:48:02;;;;;;;11.70;7.45;;;128.80;2252.80;;;;;;5098440;28;20028;-68
2021/03/10 08:50:30;;;;;;;10.10;7.18;;;128.70;2252.80;;;;;;5097876;28;20093;-68
2021/03/10 08:52:56;;;;;;;10.55;7.05;;;128.60;2252.80;;;;;;5097782;28;20024;-67
2021/03/10 08:55:26;;;;;;;8.43;5.93;;;128.50;2252.80;;;;;;5098337;28;20423;-68
2021/03/10 08:57:53;;;;;;;8.93;6.18;;;128.20;2252.80;;;;;;5098467;28;20028;-69
2021/03/10 09:00:25;;;;;;;10.88;7.38;;;128.20;2252.80;;;;;;5096262;28;20028;-68
2021/03/10 09:02:52;;;;;;;11.93;7.25;;;128.30;2252.80;;;;;;5095341;28;20334;-69
2021/03/10 09:20:38;;;;;;;9.68;6.50;;;128.60;2252.80;;;;;;5114685;27;20357;-66
2021/03/10 09:23:04;;;;;;;7.97;5.55;;;153.80;2252.80;;;;;;5115274;28;20040;-66
2021/03/10 09:25:36;;;;;;;9.65;6.20;;;128.90;2252.80;;;;;;5114555;28;20080;-66
2021/03/10 09:28:02;;;;;;;12.00;6.85;;;128.90;2252.80;;;;;;5115046;28;20034;-66
2021/03/10 09:48:29;;;;;;;15.35;8.70;;;128.90;2252.80;;;;;;5114590;27;20388;-68
2021/03/10 09:51:05;;;;;;;11.45;8.23;;;154.10;2252.80;;;;;;5114852;28;20084;-69
2021/03/10 09:53:32;;;;;;;11.63;8.68;;;154.00;2252.80;;;;;;5114334;28;20033;-69
2021/03/10 09:56:09;;;;;;;17.30;8.55;;;153.90;2252.80;;;;;;5114379;28;20081;-69
2021/03/10 09:58:55;;;;;;;11.25;8.18;;;153.90;2252.80;;;;;;5114419;28;20027;-69
2021/03/10 10:01:26;;;;;;;11.23;7.93;;;153.80;2252.80;;;;;;5112578;28;20020;-69
2021/03/10 10:03:53;;;;;;;10.40;8.13;;;153.70;2252.80;;;;;;5113855;28;20028;-69
2021/03/10 10:06:20;;;;;;;11.90;9.00;;;153.60;2252.80;;;;;;5114246;28;20050;-68
2021/03/10 10:08:47;;;;;;;11.43;7.65;;;153.60;2252.80;;;;;;5113694;28;20077;-69
2021/03/10 10:11:17;;;;;;;9.68;7.75;;;153.80;2252.80;;;;;;5114055;28;20398;-68
2021/03/10 10:13:45;;;;;;;11.77;8.43;;;153.60;2252.80;;;;;;5113434;28;20020;-68
2021/03/10 10:16:11;;;;;;;11.50;8.90;;;153.90;2252.80;;;;;;5113999;28;20035;-68
2021/03/10 10:18:37;;;;;;;14.52;11.40;;;154.20;2252.80;;;;;;5113733;28;20081;-68
2021/03/10 10:21:04;;;;;;;15.15;10.93;;;154.10;2252.80;;;;;;5113696;28;20027;-68
2021/03/10 10:23:30;;;;;;;15.38;11.13;;;154.20;2252.80;;;;;;5112213;28;20020;-68
2021/03/10 10:25:56;;;;;;;15.07;11.25;;;154.30;2252.80;;;;;;5093797;28;20198;-68
2021/03/10 10:28:22;;;;;;;15.25;11.23;;;154.20;2252.80;;;;;;5092991;28;20457;-69
2021/03/10 10:30:48;;;;;;;15.43;10.80;;;154.00;2252.80;;;;;;5093034;28;20024;-69
2021/03/10 10:33:16;;;;;;;14.10;10.63;;;154.10;2252.80;;;;;;5093379;28;20020;-70
2021/03/10 10:35:43;;;;;;;14.82;10.63;;;154.20;2252.80;;;;;;5096729;28;20031;-69
2021/03/10 10:38:09;;;;;;;16.55;10.90;;;153.90;2252.80;;;;;;5113635;28;20063;-70
2021/03/10 10:40:35;;;;;;;15.68;12.00;;;154.00;2252.80;;;;;;5113387;28;20395;-70
2021/03/10 10:43:05;;;;;;;15.77;11.50;;;154.10;2252.80;;;;;;5105060;28;20081;-70
2021/03/10 10:45:30;;;;;;;16.02;11.60;;;154.20;2252.80;;;;;;5093135;28;20024;-69
2021/03/10 10:47:56;;;;;;;16.02;10.88;;;154.50;2252.80;;;;;;5086112;28;20056;-69
2021/03/10 10:50:23;;;;;;;14.93;10.77;;;179.30;2252.80;;;;;;5078690;28;20454;-68
2021/03/10 10:52:49;;;;;;;13.32;10.40;;;179.70;2252.80;;;;;;5078711;28;20346;-68
2021/03/10 10:55:17;;;;;;;12.90;9.35;;;179.40;2252.80;;;;;;5079455;28;20016;-68
2021/03/10 10:57:45;;;;;;;15.05;10.73;;;179.30;2252.80;;;;;;5078675;28;20319;-68
2021/03/10 11:00:12;;;;;;;13.43;10.20;;;179.30;2252.80;;;;;;5091797;28;20131;-68
2021/03/10 11:02:39;;;;;;;11.02;8.82;;;154.50;2252.80;;;;;;5095670;28;20032;-69
2021/03/10 11:05:06;;;;;;;11.80;9.18;;;154.20;2252.80;;;;;;5098110;28;20016;-69
2021/03/10 11:07:32;;;;;;;11.63;8.85;;;154.30;2252.80;;;;;;5098877;28;20028;-69
2021/03/10 12:35:53;;;;;;;19.23;13.18;;;205.10;2252.80;;;;;;5134052;27;20357;-66
2021/03/10 12:38:28;;;;;;;16.83;11.38;;;204.80;2252.80;;;;;;5134765;28;20080;-68
2021/03/10 12:40:54;;;;;;;12.98;9.60;;;180.00;2252.80;;;;;;5133913;28;20023;-67
2021/03/10 12:43:21;;;;;;;13.88;10.73;;;180.00;2252.80;;;;;;5134667;28;20342;-66
2021/03/10 12:45:48;;;;;;;13.57;10.30;;;204.80;2252.80;;;;;;5128037;28;20034;-66
2021/03/10 12:48:13;;;;;;;10.15;8.05;;;204.90;2252.80;;;;;;5133134;28;20031;-66
2021/03/10 12:50:40;;;;;;;10.60;7.90;;;180.00;2252.80;;;;;;5135511;28;20030;-67
2021/03/10 12:53:06;;;;;;;10.88;8.52;;;179.30;2252.80;;;;;;5134047;28;20146;-65
2021/03/10 12:55:33;;;;;;;12.55;10.02;;;154.10;2252.80;;;;;;5132193;28;20035;-67
2021/03/10 12:57:59;;;;;;;15.18;11.48;;;128.90;2252.80;;;;;;5133126;28;20019;-66
2021/03/10 13:00:26;;;;;;;18.63;13.43;;;128.50;2252.80;;;;;;5134157;28;20058;-66
2021/03/10 13:02:56;;;;;;;20.95;14.55;;;128.50;2252.80;;;;;;5133724;28;20106;-66
2021/03/10 13:05:22;;;;;;;22.20;16.10;;;128.10;2252.80;;;;;;5127368;28;20023;-65
2021/03/10 13:07:48;;;;;;;23.17;16.45;;;103.10;2227.20;;;;;;5133739;28;20328;-68
2021/03/10 13:10:14;;;;;;;25.33;17.02;;;102.50;2227.20;;;;;;5134187;28;20117;-64
2021/03/10 13:12:41;;;;;;;27.35;17.77;;;77.40;2227.20;;;;;;5133920;28;20019;-64
2021/03/10 13:15:07;;;;;;;29.98;19.70;;;77.20;2227.20;;;;;;5132883;28;20023;-65
2021/03/10 13:17:33;;;;;;;29.88;20.02;;;77.10;2227.20;;;;;;5134932;28;20027;-65
